sensor_id;sensor_type;location;lat;lon;timestamp;pressure;altitude;pressure_sealevel;temperature;humidity
74334;BME280;62753;40.394;-80.022;2022-08-19T00:01:00;97208.78;;;30.62;22.24
74334;BME280;62753;40.394;-80.022;2022-08-19T00:03:25;97207.58;;;30.46;22.86
74334;BME280;62753;40.394;-80.022;2022-08-19T00:05:50;97212.40;;;30.37;22.48
74334;BME280;62753;40.394;-80.022;2022-08-19T00:08:15;97214.25;;;30.73;22.28
74334;BME280;62753;40.394;-80.022;2022-08-19T00:10:40;97211.38;;;31.12;22.51
74334;BME280;62753;40.394;-80.022;2022-08-19T00:13:06;97211.12;;;30.59;22.77
74334;BME280;62753;40.394;-80.022;2022-08-19T00:15:31;97211.55;;;30.39;22.77
74334;BME280;62753;40.394;-80.022;2022-08-19T00:17:56;97215.05;;;30.79;22.80
74334;BME280;62753;40.394;-80.022;2022-08-19T00:20:21;97210.36;;;30.46;23.14
74334;BME280;62753;40.394;-80.022;2022-08-19T00:22:47;97215.05;;;30.08;23.33
74334;BME280;62753;40.394;-80.022;2022-08-19T00:25:12;97215.40;;;30.26;23.38
74334;BME280;62753;40.394;-80.022;2022-08-19T00:27:37;97216.08;;;30.49;23.28
74334;BME280;62753;40.394;-80.022;2022-08-19T00:30:04;97219.94;;;30.33;23.49
74334;BME280;62753;40.394;-80.022;2022-08-19T00:32:28;97219.73;;;29.91;23.72
74334;BME280;62753;40.394;-80.022;2022-08-19T00:34:53;97222.26;;;29.64;24.44
74334;BME280;62753;40.394;-80.022;2022-08-19T00:37:18;97222.66;;;29.68;24.27
74334;BME280;62753;40.394;-80.022;2022-08-19T00:39:44;97225.47;;;29.60;23.93
74334;BME280;62753;40.394;-80.022;2022-08-19T00:42:09;97227.31;;;30.08;23.75
74334;BME280;62753;40.394;-80.022;2022-08-19T00:44:34;97226.09;;;29.71;24.03
74334;BME280;62753;40.394;-80.022;2022-08-19T00:46:59;97230.85;;;29.79;23.99
74334;BME280;62753;40.394;-80.022;2022-08-19T00:49:29;97229.82;;;30.00;24.29
74334;BME280;62753;40.394;-80.022;2022-08-19T00:51:54;97231.99;;;29.66;24.53
74334;BME280;62753;40.394;-80.022;2022-08-19T00:54:16;97237.88;;;30.35;24.19
74334;BME280;62753;40.394;-80.022;2022-08-19T00:56:41;97243.05;;;30.22;24.24
74334;BME280;62753;40.394;-80.022;2022-08-19T00:59:06;97251.51;;;29.71;24.24
74334;BME280;62753;40.394;-80.022;2022-08-19T01:01:31;97254.72;;;29.88;24.19
74334;BME280;62753;40.394;-80.022;2022-08-19T01:03:57;97259.69;;;29.95;24.04
74334;BME280;62753;40.394;-80.022;2022-08-19T01:06:22;97260.68;;;29.96;24.50
74334;BME280;62753;40.394;-80.022;2022-08-19T01:08:47;97263.90;;;30.02;24.67
74334;BME280;62753;40.394;-80.022;2022-08-19T01:11:13;97262.62;;;29.87;24.40
74334;BME280;62753;40.394;-80.022;2022-08-19T01:13:38;97270.00;;;29.81;24.61
74334;BME280;62753;40.394;-80.022;2022-08-19T01:16:09;97276.21;;;30.01;24.76
74334;BME280;62753;40.394;-80.022;2022-08-19T01:18:30;97282.47;;;29.40;25.85
74334;BME280;62753;40.394;-80.022;2022-08-19T01:20:55;97289.35;;;27.66;28.00
74334;BME280;62753;40.394;-80.022;2022-08-19T01:23:19;97293.57;;;27.73;28.18
74334;BME280;62753;40.394;-80.022;2022-08-19T01:25:48;97292.10;;;28.14;27.76
74334;BME280;62753;40.394;-80.022;2022-08-19T01:28:15;97295.93;;;28.40;27.50
74334;BME280;62753;40.394;-80.022;2022-08-19T01:30:35;97303.92;;;27.31;29.18
74334;BME280;62753;40.394;-80.022;2022-08-19T01:33:00;97303.00;;;27.36;28.87
74334;BME280;62753;40.394;-80.022;2022-08-19T01:35:26;97308.21;;;27.07;29.69
74334;BME280;62753;40.394;-80.022;2022-08-19T01:37:53;97311.74;;;27.73;29.39
74334;BME280;62753;40.394;-80.022;2022-08-19T01:40:16;97314.77;;;27.86;29.27
74334;BME280;62753;40.394;-80.022;2022-08-19T01:42:40;97318.39;;;27.73;28.79
74334;BME280;62753;40.394;-80.022;2022-08-19T01:45:07;97318.67;;;26.95;30.15
74334;BME280;62753;40.394;-80.022;2022-08-19T01:47:30;97321.03;;;27.37;29.92
74334;BME280;62753;40.394;-80.022;2022-08-19T01:49:58;97316.98;;;26.63;30.50
74334;BME280;62753;40.394;-80.022;2022-08-19T01:52:21;97318.63;;;26.95;30.47
74334;BME280;62753;40.394;-80.022;2022-08-19T01:54:46;97319.92;;;26.85;31.02
74334;BME280;62753;40.394;-80.022;2022-08-19T01:57:14;97319.29;;;26.11;31.47
74334;BME280;62753;40.394;-80.022;2022-08-19T01:59:36;97322.63;;;26.78;30.96
74334;BME280;62753;40.394;-80.022;2022-08-19T02:02:03;97325.37;;;26.93;30.56
74334;BME280;62753;40.394;-80.022;2022-08-19T02:04:27;97330.74;;;26.92;30.22
74334;BME280;62753;40.394;-80.022;2022-08-19T02:06:52;97331.79;;;27.55;29.56
74334;BME280;62753;40.394;-80.022;2022-08-19T02:09:17;97327.08;;;27.51;29.16
74334;BME280;62753;40.394;-80.022;2022-08-19T02:11:42;97328.17;;;27.44;28.63
74334;BME280;62753;40.394;-80.022;2022-08-19T02:14:08;97327.57;;;27.79;28.95
74334;BME280;62753;40.394;-80.022;2022-08-19T02:16:33;97328.69;;;27.28;28.92
74334;BME280;62753;40.394;-80.022;2022-08-19T02:18:58;97327.26;;;27.56;28.88
74334;BME280;62753;40.394;-80.022;2022-08-19T02:21:23;97328.08;;;27.75;28.77
74334;BME280;62753;40.394;-80.022;2022-08-19T02:23:49;97328.43;;;27.94;28.64
74334;BME280;62753;40.394;-80.022;2022-08-19T02:26:14;97330.67;;;28.14;28.45
74334;BME280;62753;40.394;-80.022;2022-08-19T02:28:39;97331.10;;;28.05;28.48
74334;BME280;62753;40.394;-80.022;2022-08-19T02:31:07;97327.12;;;28.01;28.42
74334;BME280;62753;40.394;-80.022;2022-08-19T02:33:29;97331.74;;;28.00;28.00
74334;BME280;62753;40.394;-80.022;2022-08-19T02:35:54;97330.83;;;28.35;27.97
74334;BME280;62753;40.394;-80.022;2022-08-19T02:38:19;97328.71;;;28.19;27.94
74334;BME280;62753;40.394;-80.022;2022-08-19T02:40:49;97325.99;;;28.14;28.00
74334;BME280;62753;40.394;-80.022;2022-08-19T02:43:10;97326.19;;;28.39;28.16
74334;BME280;62753;40.394;-80.022;2022-08-19T02:45:36;97329.37;;;27.97;28.04
74334;BME280;62753;40.394;-80.022;2022-08-19T02:48:00;97334.82;;;28.15;28.55
74334;BME280;62753;40.394;-80.022;2022-08-19T02:50:26;97334.22;;;27.80;28.45
74334;BME280;62753;40.394;-80.022;2022-08-19T02:52:51;97332.11;;;27.48;28.37
74334;BME280;62753;40.394;-80.022;2022-08-19T02:55:16;97335.09;;;28.07;28.46
74334;BME280;62753;40.394;-80.022;2022-08-19T02:57:41;97332.18;;;27.49;28.88
74334;BME280;62753;40.394;-80.022;2022-08-19T03:00:08;97328.23;;;27.78;28.79
74334;BME280;62753;40.394;-80.022;2022-08-19T03:02:31;97327.68;;;28.26;28.83
74334;BME280;62753;40.394;-80.022;2022-08-19T03:04:56;97323.71;;;28.11;28.79
74334;BME280;62753;40.394;-80.022;2022-08-19T03:07:22;97324.48;;;27.60;29.07
74334;BME280;62753;40.394;-80.022;2022-08-19T03:09:47;97325.79;;;28.18;28.96
74334;BME280;62753;40.394;-80.022;2022-08-19T03:12:12;97325.73;;;27.50;28.97
74334;BME280;62753;40.394;-80.022;2022-08-19T03:14:38;97325.02;;;27.84;28.97
74334;BME280;62753;40.394;-80.022;2022-08-19T03:17:03;97324.66;;;27.24;29.89
74334;BME280;62753;40.394;-80.022;2022-08-19T03:19:28;97323.56;;;27.19;29.76
74334;BME280;62753;40.394;-80.022;2022-08-19T03:21:53;97323.67;;;27.28;29.59
74334;BME280;62753;40.394;-80.022;2022-08-19T03:24:19;97321.85;;;27.40;29.75
74334;BME280;62753;40.394;-80.022;2022-08-19T03:26:48;97319.57;;;27.45;29.69
74334;BME280;62753;40.394;-80.022;2022-08-19T03:29:10;97324.54;;;27.21;29.86
74334;BME280;62753;40.394;-80.022;2022-08-19T03:31:35;97324.41;;;27.43;29.83
74334;BME280;62753;40.394;-80.022;2022-08-19T03:34:00;97323.19;;;27.61;29.67
74334;BME280;62753;40.394;-80.022;2022-08-19T03:36:26;97325.11;;;27.28;29.60
74334;BME280;62753;40.394;-80.022;2022-08-19T03:38:54;97327.99;;;27.36;29.80
74334;BME280;62753;40.394;-80.022;2022-08-19T03:41:18;97331.54;;;27.26;29.70
74334;BME280;62753;40.394;-80.022;2022-08-19T03:43:42;97332.83;;;27.52;29.99
74334;BME280;62753;40.394;-80.022;2022-08-19T03:46:09;97329.27;;;27.60;29.71
74334;BME280;62753;40.394;-80.022;2022-08-19T03:48:32;97327.96;;;27.51;29.57
74334;BME280;62753;40.394;-80.022;2022-08-19T03:50:57;97325.48;;;26.84;30.52
74334;BME280;62753;40.394;-80.022;2022-08-19T03:53:22;97325.26;;;26.93;30.68
74334;BME280;62753;40.394;-80.022;2022-08-19T03:55:48;97324.74;;;27.07;30.16
74334;BME280;62753;40.394;-80.022;2022-08-19T03:58:13;97323.96;;;27.07;30.15
74334;BME280;62753;40.394;-80.022;2022-08-19T04:00:42;97320.67;;;27.22;30.23
74334;BME280;62753;40.394;-80.022;2022-08-19T04:03:04;97321.49;;;26.96;30.38
74334;BME280;62753;40.394;-80.022;2022-08-19T04:05:29;97322.31;;;26.97;30.18
74334;BME280;62753;40.394;-80.022;2022-08-19T04:07:54;97322.73;;;26.93;30.20
74334;BME280;62753;40.394;-80.022;2022-08-19T04:10:19;97327.94;;;27.01;30.00
74334;BME280;62753;40.394;-80.022;2022-08-19T04:12:45;97330.48;;;26.89;30.06
74334;BME280;62753;40.394;-80.022;2022-08-19T04:15:11;97335.24;;;27.28;29.97
74334;BME280;62753;40.394;-80.022;2022-08-19T04:17:35;97333.83;;;26.51;30.10
74334;BME280;62753;40.394;-80.022;2022-08-19T04:20:01;97334.67;;;27.32;30.17
74334;BME280;62753;40.394;-80.022;2022-08-19T04:22:26;97336.81;;;27.35;30.16
74334;BME280;62753;40.394;-80.022;2022-08-19T04:24:52;97335.64;;;26.97;30.41
74334;BME280;62753;40.394;-80.022;2022-08-19T04:27:17;97333.31;;;26.91;30.55
74334;BME280;62753;40.394;-80.022;2022-08-19T04:29:42;97330.96;;;26.59;31.17
74334;BME280;62753;40.394;-80.022;2022-08-19T04:32:08;97332.06;;;26.36;30.84
74334;BME280;62753;40.394;-80.022;2022-08-19T04:34:33;97335.23;;;26.81;31.10
74334;BME280;62753;40.394;-80.022;2022-08-19T04:36:59;97338.71;;;26.33;31.62
74334;BME280;62753;40.394;-80.022;2022-08-19T04:39:26;97340.50;;;26.65;31.41
74334;BME280;62753;40.394;-80.022;2022-08-19T04:41:49;97344.41;;;26.62;31.04
74334;BME280;62753;40.394;-80.022;2022-08-19T04:44:14;97346.31;;;26.60;30.61
74334;BME280;62753;40.394;-80.022;2022-08-19T04:46:40;97347.81;;;26.62;30.52
74334;BME280;62753;40.394;-80.022;2022-08-19T04:49:05;97344.54;;;26.55;30.76
74334;BME280;62753;40.394;-80.022;2022-08-19T04:51:30;97344.03;;;26.83;30.47
74334;BME280;62753;40.394;-80.022;2022-08-19T04:53:55;97342.42;;;26.87;30.67
74334;BME280;62753;40.394;-80.022;2022-08-19T04:56:20;97339.37;;;26.64;30.69
74334;BME280;62753;40.394;-80.022;2022-08-19T04:58:47;97340.76;;;26.54;30.47
74334;BME280;62753;40.394;-80.022;2022-08-19T05:01:12;97344.18;;;26.73;30.18
74334;BME280;62753;40.394;-80.022;2022-08-19T05:03:36;97345.89;;;26.86;30.23
74334;BME280;62753;40.394;-80.022;2022-08-19T05:06:05;97347.44;;;27.35;30.38
74334;BME280;62753;40.394;-80.022;2022-08-19T05:08:26;97350.98;;;27.23;30.58
74334;BME280;62753;40.394;-80.022;2022-08-19T05:10:51;97347.74;;;26.55;30.69
74334;BME280;62753;40.394;-80.022;2022-08-19T05:13:18;97346.42;;;26.70;30.56
74334;BME280;62753;40.394;-80.022;2022-08-19T05:15:43;97343.67;;;25.80;30.45
74334;BME280;62753;40.394;-80.022;2022-08-19T05:18:07;97345.52;;;26.70;30.45
74334;BME280;62753;40.394;-80.022;2022-08-19T05:20:32;97348.71;;;26.92;30.00
74334;BME280;62753;40.394;-80.022;2022-08-19T05:22:57;97351.08;;;26.87;30.23
74334;BME280;62753;40.394;-80.022;2022-08-19T05:25:23;97349.89;;;26.75;30.35
74334;BME280;62753;40.394;-80.022;2022-08-19T05:27:48;97351.56;;;26.82;30.75
74334;BME280;62753;40.394;-80.022;2022-08-19T05:30:13;97348.81;;;26.77;30.58
74334;BME280;62753;40.394;-80.022;2022-08-19T05:32:39;97347.99;;;27.02;30.36
74334;BME280;62753;40.394;-80.022;2022-08-19T05:35:05;97345.85;;;26.27;30.58
74334;BME280;62753;40.394;-80.022;2022-08-19T05:37:29;97345.94;;;26.85;30.75
74334;BME280;62753;40.394;-80.022;2022-08-19T05:39:54;97348.66;;;26.99;30.36
74334;BME280;62753;40.394;-80.022;2022-08-19T05:42:20;97347.06;;;27.00;30.57
74334;BME280;62753;40.394;-80.022;2022-08-19T05:44:45;97347.02;;;26.84;31.09
74334;BME280;62753;40.394;-80.022;2022-08-19T05:47:12;97348.28;;;26.32;31.41
74334;BME280;62753;40.394;-80.022;2022-08-19T05:49:36;97346.51;;;26.83;31.15
74334;BME280;62753;40.394;-80.022;2022-08-19T05:52:03;97346.67;;;26.18;31.74
74334;BME280;62753;40.394;-80.022;2022-08-19T05:54:26;97346.64;;;26.26;31.87
74334;BME280;62753;40.394;-80.022;2022-08-19T05:56:51;97347.23;;;25.65;31.68
74334;BME280;62753;40.394;-80.022;2022-08-19T05:59:17;97346.42;;;26.47;31.56
74334;BME280;62753;40.394;-80.022;2022-08-19T06:01:44;97344.14;;;25.91;31.67
74334;BME280;62753;40.394;-80.022;2022-08-19T06:04:07;97346.43;;;25.89;32.06
74334;BME280;62753;40.394;-80.022;2022-08-19T06:06:32;97354.09;;;26.02;32.57
74334;BME280;62753;40.394;-80.022;2022-08-19T06:08:57;97349.14;;;25.67;32.49
74334;BME280;62753;40.394;-80.022;2022-08-19T06:11:28;97348.41;;;25.36;32.88
74334;BME280;62753;40.394;-80.022;2022-08-19T06:13:51;97349.78;;;25.70;32.70
74334;BME280;62753;40.394;-80.022;2022-08-19T06:16:14;97350.27;;;25.57;32.63
74334;BME280;62753;40.394;-80.022;2022-08-19T06:18:38;97350.00;;;25.83;32.65
74334;BME280;62753;40.394;-80.022;2022-08-19T06:21:04;97348.90;;;25.52;32.64
74334;BME280;62753;40.394;-80.022;2022-08-19T06:23:29;97348.70;;;25.89;32.65
74334;BME280;62753;40.394;-80.022;2022-08-19T06:25:54;97346.94;;;26.38;31.65
74334;BME280;62753;40.394;-80.022;2022-08-19T06:28:20;97346.55;;;26.35;31.57
74334;BME280;62753;40.394;-80.022;2022-08-19T06:30:45;97348.18;;;25.73;32.90
74334;BME280;62753;40.394;-80.022;2022-08-19T06:33:10;97347.04;;;25.47;33.65
74334;BME280;62753;40.394;-80.022;2022-08-19T06:35:38;97344.99;;;25.60;34.02
74334;BME280;62753;40.394;-80.022;2022-08-19T06:38:00;97343.68;;;25.51;33.87
74334;BME280;62753;40.394;-80.022;2022-08-19T06:40:26;97346.06;;;25.25;33.65
74334;BME280;62753;40.394;-80.022;2022-08-19T06:42:51;97347.15;;;24.55;34.35
74334;BME280;62753;40.394;-80.022;2022-08-19T06:45:16;97348.28;;;25.65;34.08
74334;BME280;62753;40.394;-80.022;2022-08-19T06:47:41;97348.93;;;24.66;34.47
74334;BME280;62753;40.394;-80.022;2022-08-19T06:50:07;97350.24;;;24.90;34.34
74334;BME280;62753;40.394;-80.022;2022-08-19T06:52:34;97353.82;;;25.18;34.03
74334;BME280;62753;40.394;-80.022;2022-08-19T06:54:58;97358.89;;;25.16;33.88
74334;BME280;62753;40.394;-80.022;2022-08-19T06:57:23;97358.34;;;25.39;33.57
74334;BME280;62753;40.394;-80.022;2022-08-19T06:59:48;97358.72;;;25.24;33.41
74334;BME280;62753;40.394;-80.022;2022-08-19T07:02:14;97360.75;;;24.79;33.41
74334;BME280;62753;40.394;-80.022;2022-08-19T07:04:39;97364.35;;;25.47;33.52
74334;BME280;62753;40.394;-80.022;2022-08-19T07:07:06;97367.88;;;25.72;32.61
74334;BME280;62753;40.394;-80.022;2022-08-19T07:09:29;97367.91;;;25.80;32.31
74334;BME280;62753;40.394;-80.022;2022-08-19T07:11:55;97365.41;;;26.19;32.71
74334;BME280;62753;40.394;-80.022;2022-08-19T07:14:23;97364.74;;;26.06;32.88
74334;BME280;62753;40.394;-80.022;2022-08-19T07:16:48;97365.03;;;25.47;33.37
74334;BME280;62753;40.394;-80.022;2022-08-19T07:19:10;97365.33;;;25.74;33.26
74334;BME280;62753;40.394;-80.022;2022-08-19T07:21:35;97366.09;;;25.93;33.29
74334;BME280;62753;40.394;-80.022;2022-08-19T07:24:01;97367.33;;;25.51;33.81
74334;BME280;62753;40.394;-80.022;2022-08-19T07:26:28;97367.02;;;25.03;34.15
74334;BME280;62753;40.394;-80.022;2022-08-19T07:28:52;97366.87;;;25.21;34.48
74334;BME280;62753;40.394;-80.022;2022-08-19T07:31:19;97365.26;;;24.63;34.77
74334;BME280;62753;40.394;-80.022;2022-08-19T07:33:41;97368.62;;;25.31;34.78
74334;BME280;62753;40.394;-80.022;2022-08-19T07:36:09;97373.53;;;25.00;34.55
74334;BME280;62753;40.394;-80.022;2022-08-19T07:38:33;97374.50;;;25.60;33.73
74334;BME280;62753;40.394;-80.022;2022-08-19T07:40:59;97371.74;;;26.03;33.15
74334;BME280;62753;40.394;-80.022;2022-08-19T07:43:23;97370.57;;;25.11;34.46
74334;BME280;62753;40.394;-80.022;2022-08-19T07:45:49;97371.16;;;24.88;34.42
74334;BME280;62753;40.394;-80.022;2022-08-19T07:48:15;97371.76;;;24.83;34.55
74334;BME280;62753;40.394;-80.022;2022-08-19T07:50:40;97373.95;;;25.28;33.91
74334;BME280;62753;40.394;-80.022;2022-08-19T07:53:06;97371.36;;;25.08;34.36
74334;BME280;62753;40.394;-80.022;2022-08-19T07:55:30;97373.81;;;24.82;35.29
74334;BME280;62753;40.394;-80.022;2022-08-19T07:57:56;97374.91;;;25.44;35.00
74334;BME280;62753;40.394;-80.022;2022-08-19T08:00:21;97376.20;;;24.34;35.45
74334;BME280;62753;40.394;-80.022;2022-08-19T08:02:46;97374.00;;;24.36;35.34
74334;BME280;62753;40.394;-80.022;2022-08-19T08:05:11;97372.87;;;24.79;35.34
74334;BME280;62753;40.394;-80.022;2022-08-19T08:07:37;97373.43;;;24.58;35.36
74334;BME280;62753;40.394;-80.022;2022-08-19T08:10:05;97376.67;;;24.45;35.28
74334;BME280;62753;40.394;-80.022;2022-08-19T08:12:31;97377.38;;;24.78;35.27
74334;BME280;62753;40.394;-80.022;2022-08-19T08:14:55;97381.67;;;24.58;34.68
74334;BME280;62753;40.394;-80.022;2022-08-19T08:17:20;97381.40;;;24.53;34.89
74334;BME280;62753;40.394;-80.022;2022-08-19T08:19:45;97382.51;;;24.74;34.98
74334;BME280;62753;40.394;-80.022;2022-08-19T08:22:10;97386.35;;;24.73;35.17
74334;BME280;62753;40.394;-80.022;2022-08-19T08:24:35;97384.68;;;24.73;34.88
74334;BME280;62753;40.394;-80.022;2022-08-19T08:27:01;97388.79;;;24.56;34.67
74334;BME280;62753;40.394;-80.022;2022-08-19T08:29:26;97388.80;;;24.87;34.95
74334;BME280;62753;40.394;-80.022;2022-08-19T08:31:51;97388.69;;;24.55;34.94
74334;BME280;62753;40.394;-80.022;2022-08-19T08:34:16;97392.94;;;24.38;34.97
74334;BME280;62753;40.394;-80.022;2022-08-19T08:36:45;97393.61;;;24.55;34.65
74334;BME280;62753;40.394;-80.022;2022-08-19T08:39:09;97392.26;;;24.96;34.25
74334;BME280;62753;40.394;-80.022;2022-08-19T08:41:40;97389.22;;;24.82;34.75
74334;BME280;62753;40.394;-80.022;2022-08-19T08:43:58;97389.78;;;24.45;34.72
74334;BME280;62753;40.394;-80.022;2022-08-19T08:46:28;97392.33;;;24.44;35.16
74334;BME280;62753;40.394;-80.022;2022-08-19T08:48:52;97395.38;;;24.12;35.44
74334;BME280;62753;40.394;-80.022;2022-08-19T08:51:16;97398.70;;;24.19;35.47
74334;BME280;62753;40.394;-80.022;2022-08-19T08:53:40;97399.27;;;24.04;35.43
74334;BME280;62753;40.394;-80.022;2022-08-19T08:56:07;97402.06;;;24.03;35.62
74334;BME280;62753;40.394;-80.022;2022-08-19T08:58:36;97404.28;;;24.79;34.75
74334;BME280;62753;40.394;-80.022;2022-08-19T09:00:55;97405.36;;;24.92;34.91
74334;BME280;62753;40.394;-80.022;2022-08-19T09:03:22;97406.87;;;24.90;34.91
74334;BME280;62753;40.394;-80.022;2022-08-19T09:05:56;97406.77;;;24.14;35.10
74334;BME280;62753;40.394;-80.022;2022-08-19T09:08:17;97407.77;;;25.09;34.35
74334;BME280;62753;40.394;-80.022;2022-08-19T09:10:39;97407.88;;;24.90;34.43
74334;BME280;62753;40.394;-80.022;2022-08-19T09:13:11;97408.88;;;24.19;35.13
74334;BME280;62753;40.394;-80.022;2022-08-19T09:15:32;97409.76;;;24.44;35.35
74334;BME280;62753;40.394;-80.022;2022-08-19T09:17:53;97417.18;;;24.00;35.39
74334;BME280;62753;40.394;-80.022;2022-08-19T09:20:21;97417.12;;;23.72;35.47
74334;BME280;62753;40.394;-80.022;2022-08-19T09:22:44;97412.78;;;23.79;35.62
74334;BME280;62753;40.394;-80.022;2022-08-19T09:25:12;97417.13;;;23.63;35.94
74334;BME280;62753;40.394;-80.022;2022-08-19T09:27:36;97418.14;;;24.02;35.76
74334;BME280;62753;40.394;-80.022;2022-08-19T09:30:00;97419.63;;;23.51;35.91
74334;BME280;62753;40.394;-80.022;2022-08-19T09:32:25;97416.67;;;23.69;35.98
74334;BME280;62753;40.394;-80.022;2022-08-19T09:34:51;97417.19;;;24.67;34.51
74334;BME280;62753;40.394;-80.022;2022-08-19T09:37:16;97420.36;;;24.45;34.76
74334;BME280;62753;40.394;-80.022;2022-08-19T09:39:41;97420.61;;;24.88;35.09
74334;BME280;62753;40.394;-80.022;2022-08-19T09:42:08;97423.92;;;23.90;35.86
74334;BME280;62753;40.394;-80.022;2022-08-19T09:44:32;97425.62;;;24.01;36.34
74334;BME280;62753;40.394;-80.022;2022-08-19T09:46:58;97428.59;;;23.63;36.27
74334;BME280;62753;40.394;-80.022;2022-08-19T09:49:23;97428.20;;;23.75;36.45
74334;BME280;62753;40.394;-80.022;2022-08-19T09:51:51;97432.22;;;23.69;36.67
74334;BME280;62753;40.394;-80.022;2022-08-19T09:54:15;97431.75;;;24.23;36.12
74334;BME280;62753;40.394;-80.022;2022-08-19T09:56:40;97433.51;;;24.15;36.60
74334;BME280;62753;40.394;-80.022;2022-08-19T09:59:05;97438.75;;;24.17;36.83
74334;BME280;62753;40.394;-80.022;2022-08-19T10:01:31;97436.73;;;23.56;37.38
74334;BME280;62753;40.394;-80.022;2022-08-19T10:03:58;97438.35;;;23.45;37.23
74334;BME280;62753;40.394;-80.022;2022-08-19T10:06:23;97439.15;;;22.98;37.63
74334;BME280;62753;40.394;-80.022;2022-08-19T10:08:47;97441.06;;;23.38;37.62
74334;BME280;62753;40.394;-80.022;2022-08-19T10:11:12;97438.80;;;23.35;37.12
74334;BME280;62753;40.394;-80.022;2022-08-19T10:13:38;97439.83;;;23.44;37.11
74334;BME280;62753;40.394;-80.022;2022-08-19T10:16:05;97440.87;;;23.46;37.00
74334;BME280;62753;40.394;-80.022;2022-08-19T10:18:28;97443.26;;;23.60;37.45
74334;BME280;62753;40.394;-80.022;2022-08-19T10:21:03;97445.35;;;23.38;36.99
74334;BME280;62753;40.394;-80.022;2022-08-19T10:23:19;97446.34;;;23.41;36.88
74334;BME280;62753;40.394;-80.022;2022-08-19T10:25:44;97442.98;;;23.83;36.77
74334;BME280;62753;40.394;-80.022;2022-08-19T10:28:09;97441.61;;;23.47;36.74
74334;BME280;62753;40.394;-80.022;2022-08-19T10:30:36;97444.76;;;23.42;36.59
74334;BME280;62753;40.394;-80.022;2022-08-19T10:33:00;97449.06;;;24.19;36.91
74334;BME280;62753;40.394;-80.022;2022-08-19T10:35:26;97452.71;;;23.66;36.91
74334;BME280;62753;40.394;-80.022;2022-08-19T10:37:51;97455.79;;;23.22;37.33
74334;BME280;62753;40.394;-80.022;2022-08-19T10:40:17;97460.62;;;23.67;37.47
74334;BME280;62753;40.394;-80.022;2022-08-19T10:42:43;97466.15;;;23.95;37.10
74334;BME280;62753;40.394;-80.022;2022-08-19T10:45:09;97472.06;;;23.64;37.25
74334;BME280;62753;40.394;-80.022;2022-08-19T10:47:33;97472.03;;;24.00;36.85
74334;BME280;62753;40.394;-80.022;2022-08-19T10:49:59;97476.11;;;23.90;37.25
74334;BME280;62753;40.394;-80.022;2022-08-19T10:52:24;97475.03;;;23.30;37.70
74334;BME280;62753;40.394;-80.022;2022-08-19T10:54:50;97475.86;;;23.35;37.86
74334;BME280;62753;40.394;-80.022;2022-08-19T10:57:15;97474.64;;;23.61;37.44
74334;BME280;62753;40.394;-80.022;2022-08-19T10:59:41;97474.23;;;23.34;37.83
74334;BME280;62753;40.394;-80.022;2022-08-19T11:02:08;97473.57;;;23.14;37.73
74334;BME280;62753;40.394;-80.022;2022-08-19T11:04:31;97473.75;;;23.49;37.28
74334;BME280;62753;40.394;-80.022;2022-08-19T11:06:57;97479.54;;;23.45;36.84
74334;BME280;62753;40.394;-80.022;2022-08-19T11:09:25;97485.00;;;23.90;36.16
74334;BME280;62753;40.394;-80.022;2022-08-19T11:11:48;97484.66;;;23.53;36.23
74334;BME280;62753;40.394;-80.022;2022-08-19T11:14:16;97484.33;;;23.28;37.06
74334;BME280;62753;40.394;-80.022;2022-08-19T11:16:40;97488.58;;;23.11;37.13
74334;BME280;62753;40.394;-80.022;2022-08-19T11:19:07;97496.95;;;23.07;37.10
74334;BME280;62753;40.394;-80.022;2022-08-19T11:21:33;97493.67;;;23.43;37.63
74334;BME280;62753;40.394;-80.022;2022-08-19T11:23:58;97494.68;;;23.15;37.95
74334;BME280;62753;40.394;-80.022;2022-08-19T11:26:22;97497.30;;;23.41;38.29
74334;BME280;62753;40.394;-80.022;2022-08-19T11:28:47;97500.18;;;23.33;38.32
74334;BME280;62753;40.394;-80.022;2022-08-19T11:31:15;97503.03;;;24.07;37.99
74334;BME280;62753;40.394;-80.022;2022-08-19T11:33:37;97502.48;;;23.43;37.74
74334;BME280;62753;40.394;-80.022;2022-08-19T11:36:03;97504.32;;;24.02;37.51
74334;BME280;62753;40.394;-80.022;2022-08-19T11:38:28;97501.81;;;24.82;36.69
74334;BME280;62753;40.394;-80.022;2022-08-19T11:40:55;97503.36;;;24.18;36.34
74334;BME280;62753;40.394;-80.022;2022-08-19T11:43:20;97507.41;;;24.57;35.99
74334;BME280;62753;40.394;-80.022;2022-08-19T11:45:45;97508.43;;;25.01;35.12
74334;BME280;62753;40.394;-80.022;2022-08-19T11:48:10;97510.51;;;24.70;36.25
74334;BME280;62753;40.394;-80.022;2022-08-19T11:50:36;97509.23;;;24.07;37.03
74334;BME280;62753;40.394;-80.022;2022-08-19T11:53:01;97507.65;;;23.43;38.90
74334;BME280;62753;40.394;-80.022;2022-08-19T11:55:27;97509.38;;;23.40;39.19
74334;BME280;62753;40.394;-80.022;2022-08-19T11:57:51;97514.25;;;24.47;37.26
74334;BME280;62753;40.394;-80.022;2022-08-19T12:00:17;97514.35;;;24.67;37.34
74334;BME280;62753;40.394;-80.022;2022-08-19T12:02:42;97517.45;;;24.27;37.90
74334;BME280;62753;40.394;-80.022;2022-08-19T12:05:08;97518.30;;;24.26;37.89
74334;BME280;62753;40.394;-80.022;2022-08-19T12:07:34;97516.26;;;24.10;38.08
74334;BME280;62753;40.394;-80.022;2022-08-19T12:09:58;97514.77;;;24.72;37.61
74334;BME280;62753;40.394;-80.022;2022-08-19T12:12:23;97516.92;;;24.84;37.17
74334;BME280;62753;40.394;-80.022;2022-08-19T12:14:48;97523.67;;;24.87;36.75
74334;BME280;62753;40.394;-80.022;2022-08-19T12:17:14;97528.51;;;24.92;36.80
74334;BME280;62753;40.394;-80.022;2022-08-19T12:19:40;97531.20;;;24.58;37.24
74334;BME280;62753;40.394;-80.022;2022-08-19T12:22:05;97533.85;;;24.66;37.69
74334;BME280;62753;40.394;-80.022;2022-08-19T12:24:31;97537.08;;;25.31;36.95
74334;BME280;62753;40.394;-80.022;2022-08-19T12:26:56;97540.32;;;25.29;36.40
74334;BME280;62753;40.394;-80.022;2022-08-19T12:29:22;97542.02;;;25.69;36.40